Relevés horaires Bierset (Belgique)


Relevés horaires à Bierset - Mercredi 28 Févr. 2018
Heure UTC1 Température [°C] Vent [km/h] Hum. [%] Pres.4 [hPa] Visi. [Km] Nébu. [octa] Préc.5 [mm] Cond.
2m. Res. Ros. Dir.2 Vit. Moy. Raf.3
23:00 -7.3 -11.8 -15.0 E 9.3 11.1 16.7 54 1012.1(-2.1/3h) 18 5/8 -- --
22:00 -7.4 -11.9 -14.7 ENE 9.3 11.1 18.5 56 1013.3(-1.3/3h) 18 5/8 -- --
21:00 -7.3 -12.4 -15.1 E 11.1 14.8 20.4 54 1013.9(-1.3/3h) 20 5/8 -- --
20:00 -6.7 -12.2 -15.9 E 13.0 14.8 20.4 48 1014.2(-1.3/3h) 30 5/8 -- --
19:00 -6.0 -10.8 -15.9 E 11.1 13.0 18.5 45 1014.5(-1.5/3h) 30 5/8 -- --
18:00 -5.4 -10.6 -16.0 E 13.0 16.7 24.1 43 1015(-1.7/3h) 20 2/8 0/12h
--
17:00 -4.8 -9.9 -16.3 E 13.0 14.8 24.1 40 1015.3(-2.0/3h) 13 2/8 -- --
16:00 -4.0 -9.3 -16.5 ENE 14.8 16.7 24.1 37 1015.8(-2.2/3h) 13 2/8 -- --
15:00 -3.6 -8.4 -17.0 E 13.0 13.0 24.1 34 1016.6(-2.3/3h) 18 1/8 -- --
14:00 -3.4 -8.2 -16.4 E 13.0 13.0 22.2 36 1017.2(-2.1/3h) 25 1/8 -- --
13:00 -3.0 -6.7 -17.0 E 9.3 13.0 24.1 33 1018(-1.7/3h) 25 1/8 -- --
12:00 -4.2 -8.6 -17.4 E 11.1 13.0 29.6 35 1019(-1.3/3h) 25 1/8 0/6h
--
11:00 -4.6 -9.1 -16.9 E 11.1 13.0 29.6 37 1019.4(-0.9/3h) 25 0/8 -- --
10:00 -6.1 -10.4 -15.3 E 9.3 11.1 18.5 48 1020(-0.2/3h) 30 0/8 -- --
09:00 -7.5 -12 -15.3 ENE 9.3 9.3 16.7 53 1020.5(0.3/3h) 30 0/8 -- --
08:00 -8.6 -11.7 -15.3 E 5.6 7.4 11.1 58 1020.7(0.5/3h) 30 1/8 -- --
07:00 -9.7 -13 -15.5 E 5.6 5.6 16.7 62 1020.6(0.5/3h) 40 1/8 -- --
06:00 -9.4 -12.6 -15.5 E 5.6 5.6 18.5 61 1020.4(0.4/3h) 50 0/8 0/12h
--
05:00 -9.1 -12.3 -15.9 E 5.6 5.6 18.5 58 1020.2(0.0/3h) 50 0/8 -- --
04:00 -8.8 -8.8 -15.6 E 3.7 5.6 16.7 58 1020(-0.4/3h) 50 0/8 -- --
03:00 -7.9 -10.9 -15.9 E 5.6 5.6 14.8 52 1019.8(-0.4/3h) 50 0/8 -- --
02:00 -7.4 -10.3 -15.4 E 5.6 5.6 9.3 53 1020(0.1/3h) 40 0/8 -- --
01:00 -7.3 -7.3 -14.2 NNO 3.7 5.6 14.8 58 1020.2(0.0/3h) 40 0/8 -- --
00:00 -6.8 -6.8 -13.6 E 3.7 7.4 16.7 58 1020.1(0.0/3h) 40 0/8 0/6h
0/24h
--

1 Coordinated Universal Time. Actuellement il est 00:00 locale et 22:00 UTC.

2 Le vent souffle depuis la direction indiquée vers la direction oposée.

3 Les rafales max. sont disponible 40 min après l'heure du relevé.

4 Pour les stations d'altitude (plus de 600m) le géopotentiel du niveau le plus proche de la pression obligatoire est indiqué.

5 Les stations disposant d'un diffuseur peuvent indiquer "trace". Cela signifie que des précipitations ont touchés le sol mais que la quantité est inférieure à 0.1 mm.

Récapitulatif de la journée
Température [°C] Vent [km/h] Ensoleillement4 [h] Precipitations totale5 [mm] Pression [Hpa]
Min1 Max.2 Moy.3 Max. Min Max.
-9.5 -2.7 10.5 29.6 0 h 0 min 0 1012.1 1020.7

1 Température minimale relevée entre 18:00 UTC la veille et 18:00 UTC le jour donné.

2 Température maximale relevée entre 06:00 UTC le jour donné et 06:00 UTC le lendemain.

3 Vent moyen de la journée basé sur les relevés horaires.

4 Ensoleillement en heures relevé entre 06:00 UTC la veille et 06:00 UTC le jour donné.

5 Précipitations totales tombées entre 06:00 UTC la jour donné et 06:00 UTC le lendemain.

Graphiques horaires